sensor_id;sensor_type;location;lat;lon;timestamp;pressure;altitude;pressure_sealevel;temperature;humidity
42811;BME280;28457;55.680;37.656;2022-08-21T00:01:46;100833.50;;;20.73;35.44
42811;BME280;28457;55.680;37.656;2022-08-21T00:04:15;100830.28;;;20.76;35.34
42811;BME280;28457;55.680;37.656;2022-08-21T00:06:48;100830.28;;;20.76;35.37
42811;BME280;28457;55.680;37.656;2022-08-21T00:09:18;100833.50;;;20.73;35.88
42811;BME280;28457;55.680;37.656;2022-08-21T00:11:47;100833.13;;;20.69;35.52
42811;BME280;28457;55.680;37.656;2022-08-21T00:14:17;100828.47;;;20.70;35.51
42811;BME280;28457;55.680;37.656;2022-08-21T00:16:46;100830.84;;;20.66;35.59
42811;BME280;28457;55.680;37.656;2022-08-21T00:19:15;100825.38;;;20.66;35.78
42811;BME280;28457;55.680;37.656;2022-08-21T00:21:43;100825.47;;;20.60;35.83
42811;BME280;28457;55.680;37.656;2022-08-21T00:24:12;100827.16;;;20.61;35.84
42811;BME280;28457;55.680;37.656;2022-08-21T00:26:41;100829.53;;;20.57;36.09
42811;BME280;28457;55.680;37.656;2022-08-21T00:29:10;100824.28;;;20.55;35.86
42811;BME280;28457;55.680;37.656;2022-08-21T00:31:41;100831.53;;;20.50;35.93
42811;BME280;28457;55.680;37.656;2022-08-21T00:34:10;100825.22;;;20.49;35.69
42811;BME280;28457;55.680;37.656;2022-08-21T00:36:39;100832.81;;;20.47;35.87
42811;BME280;28457;55.680;37.656;2022-08-21T00:39:08;100826.97;;;20.44;35.77
42811;BME280;28457;55.680;37.656;2022-08-21T00:41:37;100828.88;;;20.43;35.62
42811;BME280;28457;55.680;37.656;2022-08-21T00:44:11;100823.75;;;20.47;35.59
42811;BME280;28457;55.680;37.656;2022-08-21T00:46:43;100819.81;;;20.43;35.76
42811;BME280;28457;55.680;37.656;2022-08-21T00:49:12;100819.81;;;20.43;35.95
42811;BME280;28457;55.680;37.656;2022-08-21T00:51:43;100826.84;;;20.39;36.13
42811;BME280;28457;55.680;37.656;2022-08-21T00:54:13;100819.31;;;20.34;35.85
42811;BME280;28457;55.680;37.656;2022-08-21T00:56:46;100821.38;;;20.39;36.00
42811;BME280;28457;55.680;37.656;2022-08-21T00:59:18;100820.75;;;20.37;36.17
42811;BME280;28457;55.680;37.656;2022-08-21T01:01:49;100820.13;;;20.34;36.22
42811;BME280;28457;55.680;37.656;2022-08-21T01:04:19;100825.84;;;20.33;36.04
42811;BME280;28457;55.680;37.656;2022-08-21T01:06:48;100829.50;;;20.27;36.01
42811;BME280;28457;55.680;37.656;2022-08-21T01:09:18;100821.38;;;20.20;36.04
42811;BME280;28457;55.680;37.656;2022-08-21T01:11:47;100824.97;;;20.21;35.84
42811;BME280;28457;55.680;37.656;2022-08-21T01:14:16;100820.06;;;20.11;36.26
42811;BME280;28457;55.680;37.656;2022-08-21T01:16:50;100827.81;;;20.14;36.43
42811;BME280;28457;55.680;37.656;2022-08-21T01:19:20;100826.97;;;20.14;36.40
42811;BME280;28457;55.680;37.656;2022-08-21T01:21:51;100824.25;;;20.14;36.41
42811;BME280;28457;55.680;37.656;2022-08-21T01:24:21;100827.66;;;20.09;36.45
42811;BME280;28457;55.680;37.656;2022-08-21T01:26:50;100823.38;;;20.13;36.48
42811;BME280;28457;55.680;37.656;2022-08-21T01:29:28;100815.16;;;20.13;36.41
42811;BME280;28457;55.680;37.656;2022-08-21T01:32:27;100807.84;;;20.14;36.66
42811;BME280;28457;55.680;37.656;2022-08-21T01:35:04;100805.75;;;20.09;36.58
42811;BME280;28457;55.680;37.656;2022-08-21T01:37:34;100813.38;;;20.07;36.69
42811;BME280;28457;55.680;37.656;2022-08-21T01:40:04;100816.94;;;20.07;36.72
42811;BME280;28457;55.680;37.656;2022-08-21T01:42:33;100822.50;;;20.01;36.38
42811;BME280;28457;55.680;37.656;2022-08-21T01:45:02;100819.06;;;20.05;36.32
42811;BME280;28457;55.680;37.656;2022-08-21T01:47:31;100826.91;;;20.02;36.40
42811;BME280;28457;55.680;37.656;2022-08-21T01:49:59;100824.63;;;19.99;36.71
42811;BME280;28457;55.680;37.656;2022-08-21T01:52:29;100822.38;;;19.96;36.48
42811;BME280;28457;55.680;37.656;2022-08-21T01:54:59;100819.84;;;19.94;36.75
42811;BME280;28457;55.680;37.656;2022-08-21T01:57:28;100816.91;;;19.96;36.82
42811;BME280;28457;55.680;37.656;2022-08-21T01:59:57;100828.28;;;19.93;36.65
42811;BME280;28457;55.680;37.656;2022-08-21T02:02:25;100826.69;;;19.85;36.80
42811;BME280;28457;55.680;37.656;2022-08-21T02:04:54;100824.81;;;19.85;36.99
42811;BME280;28457;55.680;37.656;2022-08-21T02:07:22;100815.38;;;19.81;37.04
42811;BME280;28457;55.680;37.656;2022-08-21T02:09:51;100830.81;;;19.76;37.04
42811;BME280;28457;55.680;37.656;2022-08-21T02:12:23;100832.41;;;19.65;37.39
42811;BME280;28457;55.680;37.656;2022-08-21T02:15:11;100823.59;;;19.63;37.24
42811;BME280;28457;55.680;37.656;2022-08-21T02:17:41;100825.91;;;19.59;37.47
42811;BME280;28457;55.680;37.656;2022-08-21T02:20:15;100827.66;;;19.54;37.28
42811;BME280;28457;55.680;37.656;2022-08-21T02:22:43;100828.69;;;19.53;37.68
42811;BME280;28457;55.680;37.656;2022-08-21T02:25:12;100825.75;;;19.54;37.46
42811;BME280;28457;55.680;37.656;2022-08-21T02:27:43;100831.22;;;19.54;37.57
42811;BME280;28457;55.680;37.656;2022-08-21T02:30:16;100838.34;;;19.55;37.62
42811;BME280;28457;55.680;37.656;2022-08-21T02:32:46;100826.97;;;19.58;37.73
42811;BME280;28457;55.680;37.656;2022-08-21T02:35:14;100831.22;;;19.54;37.89
42811;BME280;28457;55.680;37.656;2022-08-21T02:37:45;100829.31;;;19.55;37.89
42811;BME280;28457;55.680;37.656;2022-08-21T02:40:15;100842.38;;;19.53;37.72
42811;BME280;28457;55.680;37.656;2022-08-21T02:42:46;100833.19;;;19.47;37.67
42811;BME280;28457;55.680;37.656;2022-08-21T02:45:16;100835.94;;;19.47;37.87
42811;BME280;28457;55.680;37.656;2022-08-21T02:47:48;100835.69;;;19.49;37.85
42811;BME280;28457;55.680;37.656;2022-08-21T02:50:20;100838.16;;;19.57;37.70
42811;BME280;28457;55.680;37.656;2022-08-21T02:52:51;100841.31;;;19.54;38.00
42811;BME280;28457;55.680;37.656;2022-08-21T02:55:23;100851.88;;;19.50;37.73
42811;BME280;28457;55.680;37.656;2022-08-21T02:57:55;100841.84;;;19.44;38.02
42811;BME280;28457;55.680;37.656;2022-08-21T03:00:26;100839.34;;;19.43;38.15
42811;BME280;28457;55.680;37.656;2022-08-21T03:02:56;100838.22;;;19.50;38.08
42811;BME280;28457;55.680;37.656;2022-08-21T03:05:26;100842.38;;;19.53;37.96
42811;BME280;28457;55.680;37.656;2022-08-21T03:07:55;100848.44;;;19.55;38.04
42811;BME280;28457;55.680;37.656;2022-08-21T03:10:25;100851.69;;;19.45;38.14
42811;BME280;28457;55.680;37.656;2022-08-21T03:12:55;100839.16;;;19.37;38.36
42811;BME280;28457;55.680;37.656;2022-08-21T03:15:24;100852.78;;;19.44;38.19
42811;BME280;28457;55.680;37.656;2022-08-21T03:17:52;100844.19;;;19.41;38.35
42811;BME280;28457;55.680;37.656;2022-08-21T03:20:24;100849.41;;;19.42;38.55
42811;BME280;28457;55.680;37.656;2022-08-21T03:22:53;100837.72;;;19.35;38.63
42811;BME280;28457;55.680;37.656;2022-08-21T03:25:24;100852.63;;;19.39;38.57
42811;BME280;28457;55.680;37.656;2022-08-21T03:28:09;100856.19;;;19.40;38.93
42811;BME280;28457;55.680;37.656;2022-08-21T03:30:39;100853.06;;;19.36;38.67
42811;BME280;28457;55.680;37.656;2022-08-21T03:33:08;100850.47;;;19.41;38.73
42811;BME280;28457;55.680;37.656;2022-08-21T03:35:41;100858.91;;;19.40;38.87
42811;BME280;28457;55.680;37.656;2022-08-21T03:38:11;100852.16;;;19.42;38.70
42811;BME280;28457;55.680;37.656;2022-08-21T03:40:40;100856.19;;;19.40;38.61
42811;BME280;28457;55.680;37.656;2022-08-21T03:43:11;100859.38;;;19.36;38.73
42811;BME280;28457;55.680;37.656;2022-08-21T03:45:39;100860.09;;;19.25;38.88
42811;BME280;28457;55.680;37.656;2022-08-21T03:48:08;100855.22;;;19.27;38.92
42811;BME280;28457;55.680;37.656;2022-08-21T03:50:41;100850.78;;;19.33;38.77
42811;BME280;28457;55.680;37.656;2022-08-21T03:53:11;100863.03;;;19.24;38.41
42811;BME280;28457;55.680;37.656;2022-08-21T03:55:44;100856.81;;;19.17;38.79
42811;BME280;28457;55.680;37.656;2022-08-21T03:58:16;100857.78;;;19.04;38.73
42811;BME280;28457;55.680;37.656;2022-08-21T04:00:46;100854.81;;;19.05;38.74
42811;BME280;28457;55.680;37.656;2022-08-21T04:03:16;100848.06;;;19.08;38.94
42811;BME280;28457;55.680;37.656;2022-08-21T04:05:45;100853.81;;;19.00;39.10
42811;BME280;28457;55.680;37.656;2022-08-21T04:08:15;100846.47;;;19.00;39.01
42811;BME280;28457;55.680;37.656;2022-08-21T04:10:47;100843.59;;;18.88;38.70
42811;BME280;28457;55.680;37.656;2022-08-21T04:13:18;100841.72;;;18.89;38.98
42811;BME280;28457;55.680;37.656;2022-08-21T04:15:47;100845.50;;;18.88;38.88
42811;BME280;28457;55.680;37.656;2022-08-21T04:18:16;100843.84;;;18.87;39.17
42811;BME280;28457;55.680;37.656;2022-08-21T04:20:46;100839.09;;;18.76;38.95
42811;BME280;28457;55.680;37.656;2022-08-21T04:23:17;100845.97;;;18.78;38.85
42811;BME280;28457;55.680;37.656;2022-08-21T04:25:52;100853.56;;;18.76;38.96
42811;BME280;28457;55.680;37.656;2022-08-21T04:28:22;100850.16;;;18.81;38.72
42811;BME280;28457;55.680;37.656;2022-08-21T04:30:56;100853.09;;;18.86;39.20
42811;BME280;28457;55.680;37.656;2022-08-21T04:33:25;100860.69;;;18.77;39.08
42811;BME280;28457;55.680;37.656;2022-08-21T04:35:54;100848.97;;;18.70;38.84
42811;BME280;28457;55.680;37.656;2022-08-21T04:38:22;100859.03;;;18.76;39.16
42811;BME280;28457;55.680;37.656;2022-08-21T04:40:51;100864.06;;;18.79;39.02
42811;BME280;28457;55.680;37.656;2022-08-21T04:43:20;100863.25;;;18.72;39.58
42811;BME280;28457;55.680;37.656;2022-08-21T04:45:52;100864.53;;;18.63;39.16
42811;BME280;28457;55.680;37.656;2022-08-21T04:48:22;100861.78;;;18.70;39.06
42811;BME280;28457;55.680;37.656;2022-08-21T04:50:54;100862.59;;;18.77;39.01
42811;BME280;28457;55.680;37.656;2022-08-21T04:53:30;100867.66;;;18.73;38.86
42811;BME280;28457;55.680;37.656;2022-08-21T04:56:03;100870.00;;;18.63;39.59
42811;BME280;28457;55.680;37.656;2022-08-21T04:58:33;100863.03;;;18.67;39.39
42811;BME280;28457;55.680;37.656;2022-08-21T05:01:05;100864.09;;;18.66;39.19
42811;BME280;28457;55.680;37.656;2022-08-21T05:03:36;100868.09;;;18.63;38.89
42811;BME280;28457;55.680;37.656;2022-08-21T05:06:07;100863.47;;;18.64;38.78
42811;BME280;28457;55.680;37.656;2022-08-21T05:08:38;100862.19;;;18.66;38.94
42811;BME280;28457;55.680;37.656;2022-08-21T05:11:07;100860.28;;;18.74;39.00
42811;BME280;28457;55.680;37.656;2022-08-21T05:13:36;100859.88;;;18.77;39.01
42811;BME280;28457;55.680;37.656;2022-08-21T05:16:06;100857.28;;;18.82;38.55
42811;BME280;28457;55.680;37.656;2022-08-21T05:18:35;100857.75;;;18.79;38.44
42811;BME280;28457;55.680;37.656;2022-08-21T05:21:03;100853.25;;;18.91;38.38
42811;BME280;28457;55.680;37.656;2022-08-21T05:23:32;100854.41;;;19.02;38.21
42811;BME280;28457;55.680;37.656;2022-08-21T05:26:00;100850.19;;;19.06;38.24
42811;BME280;28457;55.680;37.656;2022-08-21T05:28:29;100851.41;;;19.10;37.74
42811;BME280;28457;55.680;37.656;2022-08-21T05:30:58;100848.63;;;19.17;38.08
42811;BME280;28457;55.680;37.656;2022-08-21T05:33:28;100852.94;;;19.24;38.23
42811;BME280;28457;55.680;37.656;2022-08-21T05:35:56;100848.88;;;19.33;38.14
42811;BME280;28457;55.680;37.656;2022-08-21T05:38:25;100843.13;;;19.42;37.69
42811;BME280;28457;55.680;37.656;2022-08-21T11:19:28;100677.13;;;25.71;22.52
42811;BME280;28457;55.680;37.656;2022-08-21T11:22:06;100668.59;;;25.77;22.85
42811;BME280;28457;55.680;37.656;2022-08-21T11:24:42;100668.34;;;25.84;23.32
42811;BME280;28457;55.680;37.656;2022-08-21T11:27:19;100673.06;;;25.84;22.99
42811;BME280;28457;55.680;37.656;2022-08-21T11:29:51;100679.66;;;25.83;22.99
42811;BME280;28457;55.680;37.656;2022-08-21T11:32:31;100679.94;;;25.86;22.83
42811;BME280;28457;55.680;37.656;2022-08-21T11:35:13;100685.19;;;25.88;23.04
42811;BME280;28457;55.680;37.656;2022-08-21T11:37:55;100680.72;;;25.76;22.74
42811;BME280;28457;55.680;37.656;2022-08-21T11:40:40;100672.78;;;25.80;23.29
42811;BME280;28457;55.680;37.656;2022-08-21T11:43:17;100673.53;;;25.75;22.68
42811;BME280;28457;55.680;37.656;2022-08-21T11:45:53;100668.00;;;25.75;23.34
42811;BME280;28457;55.680;37.656;2022-08-21T11:48:36;100668.34;;;25.84;23.70
42811;BME280;28457;55.680;37.656;2022-08-21T11:51:11;100677.13;;;25.71;22.97
42811;BME280;28457;55.680;37.656;2022-08-21T11:53:46;100659.75;;;25.75;23.04
42811;BME280;28457;55.680;37.656;2022-08-21T11:56:23;100664.19;;;25.76;23.11
42811;BME280;28457;55.680;37.656;2022-08-21T11:58:58;100659.44;;;25.72;23.27
42811;BME280;28457;55.680;37.656;2022-08-21T12:01:33;100658.66;;;25.76;23.26
42811;BME280;28457;55.680;37.656;2022-08-21T12:04:06;100664.16;;;25.71;23.75
42811;BME280;28457;55.680;37.656;2022-08-21T12:06:40;100653.13;;;25.76;23.53
42811;BME280;28457;55.680;37.656;2022-08-21T12:09:31;100649.81;;;25.74;23.78
42811;BME280;28457;55.680;37.656;2022-08-21T12:12:04;100648.69;;;25.75;23.67
42811;BME280;28457;55.680;37.656;2022-08-21T12:14:38;100649.88;;;25.79;23.46
42811;BME280;28457;55.680;37.656;2022-08-21T12:17:09;100650.69;;;25.80;23.46
42811;BME280;28457;55.680;37.656;2022-08-21T12:19:57;100647.38;;;25.83;23.20
42811;BME280;28457;55.680;37.656;2022-08-21T12:22:38;100656.50;;;25.84;22.90
42811;BME280;28457;55.680;37.656;2022-08-21T12:25:10;100657.31;;;25.84;23.07
42811;BME280;28457;55.680;37.656;2022-08-21T12:27:45;100649.28;;;25.72;23.49
42811;BME280;28457;55.680;37.656;2022-08-21T12:30:33;100647.63;;;25.76;23.50
42811;BME280;28457;55.680;37.656;2022-08-21T12:33:05;100652.06;;;25.83;23.84
42811;BME280;28457;55.680;37.656;2022-08-21T12:35:38;100657.56;;;25.83;23.32
42811;BME280;28457;55.680;37.656;2022-08-21T12:38:14;100657.03;;;25.81;23.81
42811;BME280;28457;55.680;37.656;2022-08-21T12:40:45;100653.16;;;25.82;23.63
42811;BME280;28457;55.680;37.656;2022-08-21T12:43:18;100650.41;;;25.82;23.84
42811;BME280;28457;55.680;37.656;2022-08-21T12:45:50;100656.97;;;25.75;23.34
42811;BME280;28457;55.680;37.656;2022-08-21T12:48:23;100658.97;;;25.80;23.21
42811;BME280;28457;55.680;37.656;2022-08-21T12:50:55;100656.97;;;25.75;23.55
42811;BME280;28457;55.680;37.656;2022-08-21T12:53:28;100649.00;;;25.79;23.51
42811;BME280;28457;55.680;37.656;2022-08-21T12:56:01;100646.00;;;25.81;23.90
42811;BME280;28457;55.680;37.656;2022-08-21T12:58:31;100643.53;;;25.84;23.34
42811;BME280;28457;55.680;37.656;2022-08-21T13:01:03;100645.72;;;25.87;23.69
42811;BME280;28457;55.680;37.656;2022-08-21T13:03:35;100644.84;;;25.76;23.68
42811;BME280;28457;55.680;37.656;2022-08-21T13:06:06;100639.34;;;25.76;23.74
42811;BME280;28457;55.680;37.656;2022-08-21T13:08:38;100646.78;;;25.76;23.48
42811;BME280;28457;55.680;37.656;2022-08-21T13:11:15;100642.09;;;25.76;24.09
42811;BME280;28457;55.680;37.656;2022-08-21T13:14:02;100644.28;;;25.74;23.64
42811;BME280;28457;55.680;37.656;2022-08-21T13:16:31;100639.59;;;25.70;23.85
42811;BME280;28457;55.680;37.656;2022-08-21T13:19:05;100639.06;;;25.78;24.03
42811;BME280;28457;55.680;37.656;2022-08-21T13:21:34;100637.44;;;25.82;23.94
42811;BME280;28457;55.680;37.656;2022-08-21T13:24:13;100634.66;;;25.82;23.23
42811;BME280;28457;55.680;37.656;2022-08-21T13:27:03;100631.06;;;25.76;23.33
42811;BME280;28457;55.680;37.656;2022-08-21T13:29:33;100639.13;;;25.83;23.32
42811;BME280;28457;55.680;37.656;2022-08-21T13:32:05;100623.38;;;25.84;23.65
42811;BME280;28457;55.680;37.656;2022-08-21T13:34:36;100629.16;;;25.82;23.46
42811;BME280;28457;55.680;37.656;2022-08-21T13:37:07;100630.25;;;25.81;23.34
42811;BME280;28457;55.680;37.656;2022-08-21T13:39:38;100621.72;;;25.88;23.27
42811;BME280;28457;55.680;37.656;2022-08-21T13:42:11;100624.19;;;25.79;22.93
42811;BME280;28457;55.680;37.656;2022-08-21T13:44:44;100625.03;;;25.79;22.93
42811;BME280;28457;55.680;37.656;2022-08-21T13:47:15;100631.66;;;25.84;23.20
42811;BME280;28457;55.680;37.656;2022-08-21T13:49:46;100635.50;;;25.83;23.23
42811;BME280;28457;55.680;37.656;2022-08-21T13:52:18;100629.16;;;25.82;23.72
42811;BME280;28457;55.680;37.656;2022-08-21T13:54:54;100615.09;;;25.84;23.26
42811;BME280;28457;55.680;37.656;2022-08-21T13:57:28;100612.59;;;25.82;22.73
42811;BME280;28457;55.680;37.656;2022-08-21T14:00:11;100611.47;;;25.78;23.19
42811;BME280;28457;55.680;37.656;2022-08-21T14:02:42;100611.50;;;25.83;22.91
42811;BME280;28457;55.680;37.656;2022-08-21T14:05:16;100603.22;;;25.88;22.78
42811;BME280;28457;55.680;37.656;2022-08-21T14:07:48;100602.94;;;25.90;23.00
42811;BME280;28457;55.680;37.656;2022-08-21T14:10:21;100609.28;;;25.85;22.41
42811;BME280;28457;55.680;37.656;2022-08-21T14:12:51;100606.28;;;25.87;22.00
42811;BME280;28457;55.680;37.656;2022-08-21T14:15:24;100605.13;;;25.83;22.22
42811;BME280;28457;55.680;37.656;2022-08-21T14:18:07;100609.28;;;25.80;21.66
42811;BME280;28457;55.680;37.656;2022-08-21T14:20:36;100602.97;;;25.79;22.22
42811;BME280;28457;55.680;37.656;2022-08-21T14:23:05;100594.69;;;25.79;22.24
42811;BME280;28457;55.680;37.656;2022-08-21T14:25:40;100601.56;;;25.82;21.91
42811;BME280;28457;55.680;37.656;2022-08-21T14:28:15;100607.06;;;25.82;21.87
42811;BME280;28457;55.680;37.656;2022-08-21T14:30:47;100608.69;;;25.78;22.05
42811;BME280;28457;55.680;37.656;2022-08-21T14:33:24;100607.63;;;25.79;21.97
42811;BME280;28457;55.680;37.656;2022-08-21T14:35:54;100607.06;;;25.77;22.64
42811;BME280;28457;55.680;37.656;2022-08-21T14:38:24;100614.28;;;25.83;22.52
42811;BME280;28457;55.680;37.656;2022-08-21T14:40:57;100609.84;;;25.82;23.02
42811;BME280;28457;55.680;37.656;2022-08-21T14:43:28;100610.94;;;25.81;23.17
42811;BME280;28457;55.680;37.656;2022-08-21T14:45:56;100603.19;;;25.78;23.15
42811;BME280;28457;55.680;37.656;2022-08-21T14:48:25;100613.41;;;25.77;23.31
42811;BME280;28457;55.680;37.656;2022-08-21T14:50:53;100611.19;;;25.74;23.13
42811;BME280;28457;55.680;37.656;2022-08-21T14:53:26;100609.81;;;25.77;23.70
42811;BME280;28457;55.680;37.656;2022-08-21T14:55:56;100606.75;;;25.78;23.53
42811;BME280;28457;55.680;37.656;2022-08-21T14:58:35;100603.78;;;25.80;23.95
42811;BME280;28457;55.680;37.656;2022-08-21T15:01:05;100611.50;;;25.83;23.98
42811;BME280;28457;55.680;37.656;2022-08-21T15:03:35;100612.88;;;25.81;23.84
42811;BME280;28457;55.680;37.656;2022-08-21T15:06:05;100605.13;;;25.83;23.63
42811;BME280;28457;55.680;37.656;2022-08-21T15:08:34;100613.13;;;25.79;23.67
42811;BME280;28457;55.680;37.656;2022-08-21T15:11:05;100606.75;;;25.78;23.84
42811;BME280;28457;55.680;37.656;2022-08-21T15:13:39;100608.72;;;25.73;23.75
42811;BME280;28457;55.680;37.656;2022-08-21T15:16:09;100602.34;;;25.67;23.88
42811;BME280;28457;55.680;37.656;2022-08-21T15:18:39;100600.94;;;25.65;23.63
42811;BME280;28457;55.680;37.656;2022-08-21T15:21:08;100600.13;;;25.64;23.88
42811;BME280;28457;55.680;37.656;2022-08-21T15:23:37;100600.41;;;25.68;23.96
42811;BME280;28457;55.680;37.656;2022-08-21T15:26:11;100602.63;;;25.66;23.71
42811;BME280;28457;55.680;37.656;2022-08-21T15:28:39;100601.53;;;25.67;23.62
42811;BME280;28457;55.680;37.656;2022-08-21T15:31:08;100605.09;;;25.67;23.54
42811;BME280;28457;55.680;37.656;2022-08-21T15:33:37;100607.03;;;25.67;24.09
42811;BME280;28457;55.680;37.656;2022-08-21T15:36:06;100599.31;;;25.74;23.98
42811;BME280;28457;55.680;37.656;2022-08-21T15:38:34;100604.84;;;25.74;23.89
42811;BME280;28457;55.680;37.656;2022-08-21T15:41:03;100598.50;;;25.73;24.04
42811;BME280;28457;55.680;37.656;2022-08-21T15:43:38;100604.28;;;25.77;23.84
42811;BME280;28457;55.680;37.656;2022-08-21T15:46:10;100591.88;;;25.69;24.18
42811;BME280;28457;55.680;37.656;2022-08-21T15:48:40;100599.59;;;25.62;24.50
42811;BME280;28457;55.680;37.656;2022-08-21T15:51:09;100595.72;;;25.58;24.18
42811;BME280;28457;55.680;37.656;2022-08-21T15:53:38;100589.06;;;25.54;24.27
42811;BME280;28457;55.680;37.656;2022-08-21T15:56:14;100591.28;;;25.52;24.64
42811;BME280;28457;55.680;37.656;2022-08-21T15:58:47;100592.66;;;25.49;24.53
42811;BME280;28457;55.680;37.656;2022-08-21T16:01:23;100598.16;;;25.49;24.42
42811;BME280;28457;55.680;37.656;2022-08-21T16:03:52;100604.22;;;25.46;24.54
42811;BME280;28457;55.680;37.656;2022-08-21T16:06:22;100600.41;;;25.47;24.51
42811;BME280;28457;55.680;37.656;2022-08-21T16:09:05;100592.94;;;25.48;24.93
42811;BME280;28457;55.680;37.656;2022-08-21T16:11:33;100592.13;;;25.47;24.76
42811;BME280;28457;55.680;37.656;2022-08-21T16:14:06;100593.78;;;25.48;24.87
42811;BME280;28457;55.680;37.656;2022-08-21T16:16:35;100594.88;;;25.47;25.03
42811;BME280;28457;55.680;37.656;2022-08-21T16:19:04;100583.84;;;25.47;24.94
42811;BME280;28457;55.680;37.656;2022-08-21T16:21:34;100580.81;;;25.44;24.98
42811;BME280;28457;55.680;37.656;2022-08-21T16:24:03;100583.56;;;25.44;24.97
42811;BME280;28457;55.680;37.656;2022-08-21T16:26:32;100584.09;;;25.46;25.23
42811;BME280;28457;55.680;37.656;2022-08-21T16:29:01;100582.44;;;25.40;25.15
42811;BME280;28457;55.680;37.656;2022-08-21T16:31:31;100589.03;;;25.34;24.86
42811;BME280;28457;55.680;37.656;2022-08-21T16:34:01;100583.78;;;25.27;25.08
42811;BME280;28457;55.680;37.656;2022-08-21T16:36:29;100582.44;;;25.29;25.47
42811;BME280;28457;55.680;37.656;2022-08-21T16:38:59;100586.53;;;25.27;25.44
42811;BME280;28457;55.680;37.656;2022-08-21T16:41:32;100586.25;;;25.28;25.48
42811;BME280;28457;55.680;37.656;2022-08-21T16:44:02;100576.06;;;25.29;25.62
42811;BME280;28457;55.680;37.656;2022-08-21T16:46:34;100582.97;;;25.31;25.25
42811;BME280;28457;55.680;37.656;2022-08-21T16:49:03;100583.25;;;25.30;25.74
42811;BME280;28457;55.680;37.656;2022-08-21T16:51:31;100585.72;;;25.26;25.80
42811;BME280;28457;55.680;37.656;2022-08-21T16:54:00;100585.69;;;25.21;25.76
42811;BME280;28457;55.680;37.656;2022-08-21T16:56:29;100581.84;;;25.22;25.87
42811;BME280;28457;55.680;37.656;2022-08-21T16:58:57;100590.94;;;25.23;25.88
42811;BME280;28457;55.680;37.656;2022-08-21T17:01:28;100586.50;;;25.22;26.11
42811;BME280;28457;55.680;37.656;2022-08-21T17:03:59;100598.94;;;25.19;26.16
42811;BME280;28457;55.680;37.656;2022-08-21T17:06:28;100593.09;;;25.11;26.13
42811;BME280;28457;55.680;37.656;2022-08-21T17:08:57;100590.34;;;25.11;25.89
42811;BME280;28457;55.680;37.656;2022-08-21T17:11:30;100604.09;;;25.05;26.30
42811;BME280;28457;55.680;37.656;2022-08-21T17:14:06;100596.91;;;25.04;26.28
42811;BME280;28457;55.680;37.656;2022-08-21T17:16:36;100594.72;;;25.06;26.52
42811;BME280;28457;55.680;37.656;2022-08-21T17:19:06;100599.94;;;24.98;26.01
42811;BME280;28457;55.680;37.656;2022-08-21T17:21:35;100599.34;;;24.91;26.15
42811;BME280;28457;55.680;37.656;2022-08-21T17:24:04;100599.88;;;24.93;26.46
42811;BME280;28457;55.680;37.656;2022-08-21T17:26:33;100598.78;;;24.94;26.06
42811;BME280;28457;55.680;37.656;2022-08-21T17:29:03;100592.13;;;24.84;25.82
42811;BME280;28457;55.680;37.656;2022-08-21T17:31:36;100591.56;;;24.77;25.82
42811;BME280;28457;55.680;37.656;2022-08-21T17:34:08;100587.97;;;24.77;25.99
42811;BME280;28457;55.680;37.656;2022-08-21T17:36:37;100586.56;;;24.74;26.27
42811;BME280;28457;55.680;37.656;2022-08-21T17:39:06;100587.69;;;24.73;26.62
42811;BME280;28457;55.680;37.656;2022-08-21T17:41:36;100589.31;;;24.69;26.46
42811;BME280;28457;55.680;37.656;2022-08-21T17:44:06;100593.16;;;24.68;26.68
42811;BME280;28457;55.680;37.656;2022-08-21T17:46:38;100588.22;;;24.70;26.78
42811;BME280;28457;55.680;37.656;2022-08-21T17:49:08;100580.75;;;24.66;27.24
42811;BME280;28457;55.680;37.656;2022-08-21T17:51:37;100586.84;;;24.73;27.18
42811;BME280;28457;55.680;37.656;2022-08-21T17:54:06;100583.81;;;24.74;26.88
42811;BME280;28457;55.680;37.656;2022-08-21T17:56:37;100592.59;;;24.66;27.20
42811;BME280;28457;55.680;37.656;2022-08-21T17:59:07;100593.69;;;24.65;27.07
42811;BME280;28457;55.680;37.656;2022-08-21T18:01:38;100588.16;;;24.65;26.72
42811;BME280;28457;55.680;37.656;2022-08-21T18:04:10;100599.75;;;24.62;27.19
42811;BME280;28457;55.680;37.656;2022-08-21T18:06:39;100600.34;;;24.69;27.08
42811;BME280;28457;55.680;37.656;2022-08-21T18:09:09;100600.56;;;24.63;27.21
42811;BME280;28457;55.680;37.656;2022-08-21T18:11:39;100600.56;;;24.63;27.33
42811;BME280;28457;55.680;37.656;2022-08-21T18:14:09;100598.88;;;24.56;27.40
42811;BME280;28457;55.680;37.656;2022-08-21T18:16:38;100601.63;;;24.56;27.41
42811;BME280;28457;55.680;37.656;2022-08-21T18:19:10;100596.63;;;24.48;27.14
42811;BME280;28457;55.680;37.656;2022-08-21T18:21:42;100600.47;;;24.47;27.42
42811;BME280;28457;55.680;37.656;2022-08-21T18:24:11;100609.81;;;24.41;27.41
42811;BME280;28457;55.680;37.656;2022-08-21T18:26:41;100596.34;;;24.45;27.26
42811;BME280;28457;55.680;37.656;2022-08-21T18:29:13;100603.66;;;24.34;27.25
42811;BME280;28457;55.680;37.656;2022-08-21T18:31:43;100607.75;;;24.31;27.49
42811;BME280;28457;55.680;37.656;2022-08-21T18:34:20;100600.34;;;24.32;27.56
42811;BME280;28457;55.680;37.656;2022-08-21T18:36:49;100600.84;;;24.24;27.60
42811;BME280;28457;55.680;37.656;2022-08-21T18:39:19;100600.53;;;24.20;27.77
42811;BME280;28457;55.680;37.656;2022-08-21T18:42:07;100602.97;;;24.17;28.12